Time;durP1;ratioP1;P1;durP2;ratioP2;P2;SDS_P1;SDS_P2;PMS_P1;PMS_P2;Temp;Humidity;BMP_temperature;BMP_pressure;BME280_temperature;BME280_humidity;BME280_pressure;Samples;Min_cycle;Max_cycle;Signal;HPM_P1;HPM_P2
2022/05/19 00:01:33;;;;;;;;;;;;;;;29.71;38.32;94629.16;4878497;29;9040;-60
2022/05/19 00:03:59;;;;;;;;;;;;;;;29.70;38.15;94635.97;4886557;29;9154;-60
2022/05/19 00:06:35;;;;;;;;;;;;;;;29.70;38.35;94633.19;4887740;29;7134;-60
2022/05/19 00:09:13;;;;;;;;;;;;;;;29.69;38.44;94626.13;4892946;29;7519;-60
2022/05/19 00:11:41;;;;;;;;;;;;;;;29.68;38.44;94630.97;4907432;29;7612;-60
2022/05/19 00:14:21;;;;;;;;;;;;;;;29.69;38.12;94623.38;4938672;28;9167;-60
2022/05/19 00:16:57;;;;;;;;;;;;;;;29.69;37.77;94628.91;4949665;28;7369;-60
2022/05/19 00:19:26;;;;;;;;;;;;;;;29.67;37.82;94628.69;4941666;28;7514;-60
2022/05/19 00:21:53;;;;;;;;;;;;;;;29.66;37.88;94638.31;4953774;28;8832;-60
2022/05/19 00:24:21;;;;;;;;;;;;;;;29.66;38.41;94635.53;4956894;28;7283;-60
2022/05/19 00:26:50;;;;;;;;;;;;;;;29.68;38.15;94632.97;4940532;28;7705;-60
2022/05/19 00:29:20;;;;;;;;;;;;;;;29.69;38.25;94632.44;4952106;28;6947;-60
2022/05/19 00:31:47;;;;;;;;;;;;;;;29.68;37.97;94627.44;4954821;28;7242;-60
2022/05/19 00:34:16;;;;;;;;;;;;;;;29.68;37.85;94632.97;4951019;28;7029;-60
2022/05/19 00:36:42;;;;;;;;;;;;;;;29.67;37.75;94634.25;4942266;28;7228;-60
2022/05/19 00:39:10;;;;;;;;;;;;;;;29.62;37.93;94633.06;4949869;28;7294;-60
2022/05/19 00:44:50;;;;;;;;;;;;;;;29.62;38.19;94626.78;4936414;28;8781;-60
2022/05/19 00:47:35;;;;;;;;;;;;;;;29.59;38.03;94631.38;4949000;28;7074;-60
2022/05/19 00:50:04;;;;;;;;;;;;;;;29.64;38.34;94627.75;4947788;28;7119;-60
2022/05/19 00:52:39;;;;;;;;;;;;;;;29.66;37.91;94638.31;4949206;28;9183;-60
2022/05/19 00:55:19;;;;;;;;;;;;;;;29.63;38.39;94634.56;4929634;28;7303;-59
2022/05/19 00:58:22;;;;;;;;;;;;;;;29.63;37.64;94631.81;4937094;28;8746;-59
2022/05/19 01:00:49;;;;;;;;;;;;;;;29.63;38.47;94634.56;4912091;29;9172;-60
2022/05/19 01:03:33;;;;;;;;;;;;;;;29.65;37.85;94631.25;4900095;29;8537;-59
2022/05/19 01:06:35;;;;;;;;;;;;;;;29.62;38.35;94626.78;4895250;29;9254;-60
2022/05/19 01:09:07;;;;;;;;;;;;;;;29.58;38.63;94629.16;4893578;29;8869;-60
2022/05/19 01:11:54;;;;;;;;;;;;;;;29.59;37.88;94630.63;4879316;29;9061;-60
2022/05/19 01:14:29;;;;;;;;;;;;;;;29.58;38.40;94635.41;4880370;29;7247;-60
2022/05/19 01:17:11;;;;;;;;;;;;;;;29.61;37.71;94637.13;4893601;29;9098;-60
2022/05/19 01:19:55;;;;;;;;;;;;;;;29.58;38.00;94643.72;4890244;29;7099;-61
2022/05/19 01:22:42;;;;;;;;;;;;;;;29.55;38.15;94641.28;4892904;29;7615;-60
2022/05/19 01:25:19;;;;;;;;;;;;;;;29.53;38.30;94641.81;4890055;29;8858;-60
2022/05/19 01:27:45;;;;;;;;;;;;;;;29.54;38.05;94646.06;4866254;29;8956;-60
2022/05/19 01:30:12;;;;;;;;;;;;;;;29.52;38.38;94639.56;4889093;29;7224;-60
2022/05/19 01:32:39;;;;;;;;;;;;;;;29.50;38.55;94644.88;4885689;29;9074;-60
2022/05/19 01:35:08;;;;;;;;;;;;;;;29.48;38.37;94650.97;4889661;29;7176;-60
2022/05/19 01:37:34;;;;;;;;;;;;;;;29.49;37.79;94640.63;4875864;29;7877;-61
2022/05/19 01:40:06;;;;;;;;;;;;;;;29.48;37.95;94639.13;4897149;29;7518;-61
2022/05/19 01:42:47;;;;;;;;;;;;;;;29.48;38.71;94639.13;4892692;29;9208;-61
2022/05/19 01:45:45;;;;;;;;;;;;;;;29.45;38.34;94638.16;4931592;28;9169;-61
2022/05/19 01:48:20;;;;;;;;;;;;;;;29.45;38.19;94643.72;4894136;29;6997;-60
2022/05/19 01:51:03;;;;;;;;;;;;;;;29.46;37.72;94652.78;4887677;29;7084;-61
2022/05/19 01:54:02;;;;;;;;;;;;;;;29.44;38.14;94644.25;4911630;29;9109;-61
2022/05/19 01:56:51;;;;;;;;;;;;;;;29.45;37.91;94648.53;4892896;29;7511;-60
2022/05/19 01:59:25;;;;;;;;;;;;;;;29.44;37.75;94639.47;4895046;29;8236;-60
2022/05/19 02:02:29;;;;;;;;;;;;;;;29.44;38.52;94638.69;4901341;29;7282;-60
2022/05/19 02:05:18;;;;;;;;;;;;;;;29.42;38.52;94642.00;4912154;29;7244;-60
2022/05/19 02:07:55;;;;;;;;;;;;;;;29.41;38.21;94646.03;4895952;29;9113;-60
2022/05/19 02:10:30;;;;;;;;;;;;;;;29.40;38.13;94644.56;4910934;29;7198;-60
2022/05/19 02:13:09;;;;;;;;;;;;;;;29.41;38.29;94651.59;4888606;29;7705;-60
2022/05/19 02:15:42;;;;;;;;;;;;;;;29.39;37.95;94645.09;4882624;29;7220;-60
2022/05/19 02:18:27;;;;;;;;;;;;;;;29.38;38.14;94652.66;4883790;29;9120;-60
2022/05/19 02:21:04;;;;;;;;;;;;;;;29.39;38.11;94647.84;4911349;29;9162;-60
2022/05/19 02:23:36;;;;;;;;;;;;;;;29.38;37.95;94647.13;4893964;29;7227;-60
2022/05/19 02:26:06;;;;;;;;;;;;;;;29.36;38.09;94649.66;4932985;28;8839;-60
2022/05/19 02:28:41;;;;;;;;;;;;;;;29.36;37.84;94651.69;4935129;28;9065;-61
2022/05/19 02:31:08;;;;;;;;;;;;;;;29.35;38.12;94645.41;4935124;28;7387;-60
2022/05/19 02:33:37;;;;;;;;;;;;;;;29.35;38.35;94647.41;4963275;28;7675;-60
2022/05/19 02:36:15;;;;;;;;;;;;;;;29.34;38.34;94643.91;4953036;28;7148;-60
2022/05/19 02:38:41;;;;;;;;;;;;;;;29.34;38.27;94643.91;4936305;28;8803;-60
2022/05/19 02:41:13;;;;;;;;;;;;;;;29.32;38.49;94642.97;4949679;28;7256;-60
2022/05/19 02:43:42;;;;;;;;;;;;;;;29.32;38.22;94652.00;4956566;28;9059;-60
2022/05/19 02:46:20;;;;;;;;;;;;;;;29.32;38.14;94654.03;4933746;28;7257;-60
2022/05/19 02:48:49;;;;;;;;;;;;;;;29.32;38.32;94654.03;4934170;28;7583;-60
2022/05/19 02:51:15;;;;;;;;;;;;;;;29.30;38.37;94654.56;4951493;28;7312;-60
2022/05/19 02:53:41;;;;;;;;;;;;;;;29.31;38.29;94660.84;4964912;28;9042;-60
2022/05/19 02:56:18;;;;;;;;;;;;;;;29.31;38.39;94661.59;4939412;28;7135;-60
2022/05/19 02:58:44;;;;;;;;;;;;;;;29.30;38.22;94656.56;4947704;28;7669;-60
2022/05/19 03:01:11;;;;;;;;;;;;;;;29.31;38.70;94652.53;4964003;28;6995;-60
2022/05/19 03:03:46;;;;;;;;;;;;;;;29.30;38.63;94662.09;4942687;28;7126;-60
2022/05/19 03:06:12;;;;;;;;;;;;;;;29.26;38.44;94656.88;4944830;28;7607;-60
2022/05/19 03:08:40;;;;;;;;;;;;;;;29.29;38.21;94655.09;4951035;28;7250;-60
2022/05/19 03:11:06;;;;;;;;;;;;;;;29.28;38.68;94659.13;4935199;28;7355;-60
2022/05/19 03:13:34;;;;;;;;;;;;;;;29.26;38.38;94656.13;4963140;28;9088;-60
2022/05/19 03:16:00;;;;;;;;;;;;;;;29.25;37.91;94658.19;4940595;28;7428;-60
2022/05/19 03:18:27;;;;;;;;;;;;;;;29.25;38.56;94663.72;4944425;28;7275;-60
2022/05/19 03:20:53;;;;;;;;;;;;;;;29.26;38.09;94667.22;4950551;28;9035;-60
2022/05/19 03:23:20;;;;;;;;;;;;;;;29.27;38.08;94674.25;4926154;28;7140;-60
2022/05/19 03:25:50;;;;;;;;;;;;;;;29.27;38.19;94668.72;4935250;29;7224;-60
2022/05/19 03:28:33;;;;;;;;;;;;;;;29.26;38.19;94673.50;4940037;29;7244;-60
2022/05/19 03:31:09;;;;;;;;;;;;;;;29.26;38.35;94667.97;4961092;28;8241;-60
2022/05/19 03:33:47;;;;;;;;;;;;;;;29.24;38.30;94673.28;4935387;29;7302;-60
2022/05/19 03:37:02;;;;;;;;;;;;;;;29.23;38.46;94673.84;4929600;29;9427;-60
2022/05/19 03:39:30;;;;;;;;;;;;;;;29.24;38.25;94672.53;4873372;29;9125;-60
2022/05/19 03:41:57;;;;;;;;;;;;;;;29.21;38.56;94677.09;4871720;29;7225;-60
2022/05/19 03:44:24;;;;;;;;;;;;;;;29.21;38.37;94682.66;4846892;29;7309;-60
2022/05/19 03:46:51;;;;;;;;;;;;;;;29.20;38.50;94683.19;4866862;29;6875;-60
2022/05/19 03:49:17;;;;;;;;;;;;;;;29.19;38.49;94684.47;4871275;29;7132;-59
2022/05/19 03:51:43;;;;;;;;;;;;;;;29.19;38.43;94685.19;4857901;29;7049;-61
2022/05/19 03:54:09;;;;;;;;;;;;;;;29.22;38.04;94689.69;4856463;29;7082;-61
2022/05/19 03:56:36;;;;;;;;;;;;;;;29.22;38.39;94683.41;4862228;29;7070;-60
2022/05/19 03:59:02;;;;;;;;;;;;;;;29.21;38.55;94681.94;4865316;29;6888;-62
2022/05/19 04:01:30;;;;;;;;;;;;;;;29.20;37.88;94688.72;4856078;29;7250;-61
2022/05/19 04:03:56;;;;;;;;;;;;;;;29.19;38.24;94690.03;4872136;29;7387;-60
2022/05/19 04:06:22;;;;;;;;;;;;;;;29.19;38.43;94687.25;4871688;29;7873;-58
2022/05/19 04:08:49;;;;;;;;;;;;;;;29.18;38.30;94688.50;4873179;29;8971;-60
2022/05/19 04:11:15;;;;;;;;;;;;;;;29.17;38.60;94685.00;4866186;29;9204;-60
2022/05/19 04:13:41;;;;;;;;;;;;;;;29.17;38.49;94695.34;4855662;29;7295;-60
2022/05/19 04:16:09;;;;;;;;;;;;;;;29.17;38.32;94698.09;4894446;29;6861;-60
2022/05/19 04:18:37;;;;;;;;;;;;;;;29.17;38.07;94698.84;4939880;29;9266;-60
2022/05/19 04:21:36;;;;;;;;;;;;;;;29.18;37.98;94707.91;4948998;28;9068;-60
2022/05/19 04:24:06;;;;;;;;;;;;;;;29.17;38.14;94706.41;4869957;29;8775;-60
2022/05/19 04:26:40;;;;;;;;;;;;;;;29.19;38.34;94706.63;4876077;29;7506;-60
2022/05/19 04:29:06;;;;;;;;;;;;;;;29.17;37.83;94706.41;4879115;29;7274;-60
2022/05/19 04:31:32;;;;;;;;;;;;;;;29.16;37.89;94708.44;4888942;29;9086;-59
2022/05/19 04:34:04;;;;;;;;;;;;;;;29.16;38.04;94710.41;4886830;29;9381;-60
2022/05/19 04:36:36;;;;;;;;;;;;;;;29.14;37.89;94704.66;4872141;29;8968;-59
2022/05/19 04:39:03;;;;;;;;;;;;;;;29.13;38.31;94714.25;4864597;29;7280;-60
2022/05/19 04:41:31;;;;;;;;;;;;;;;29.10;38.52;94716.06;4882233;29;9045;-60
2022/05/19 04:43:58;;;;;;;;;;;;;;;29.12;38.61;94718.28;4870322;29;9126;-63
2022/05/19 04:46:26;;;;;;;;;;;;;;;29.11;38.20;94714.78;4883974;29;7362;-61
2022/05/19 04:48:51;;;;;;;;;;;;;;;29.12;38.12;94724.59;4878713;29;7029;-61
2022/05/19 04:51:17;;;;;;;;;;;;;;;29.14;38.29;94715.75;4879846;29;9418;-61
2022/05/19 04:53:46;;;;;;;;;;;;;;;29.15;38.42;94715.22;4874274;29;7054;-60
2022/05/19 04:56:12;;;;;;;;;;;;;;;29.13;37.84;94712.22;4880895;29;8607;-61
2022/05/19 04:58:38;;;;;;;;;;;;;;;29.12;38.32;94724.59;4878977;28;7416;-61
2022/05/19 05:01:05;;;;;;;;;;;;;;;29.10;38.47;94727.13;4936017;28;7057;-60
2022/05/19 05:03:32;;;;;;;;;;;;;;;29.09;38.10;94726.38;4952374;28;9188;-61
2022/05/19 05:06:11;;;;;;;;;;;;;;;29.05;38.12;94727.97;4933031;28;7280;-60
2022/05/19 05:08:39;;;;;;;;;;;;;;;29.03;38.22;94734.03;4966686;28;9384;-59
2022/05/19 05:11:06;;;;;;;;;;;;;;;29.00;38.06;94734.31;4932914;28;9238;-59
2022/05/19 05:13:32;;;;;;;;;;;;;;;29.01;37.30;94735.84;4950841;28;7260;-59
2022/05/19 05:16:01;;;;;;;;;;;;;;;28.97;37.39;94741.66;4943107;28;9529;-59
2022/05/19 05:18:28;;;;;;;;;;;;;;;28.98;38.26;94737.63;4942302;28;6864;-59
2022/05/19 05:20:56;;;;;;;;;;;;;;;29.00;38.14;94745.41;4934008;28;7255;-59
2022/05/19 05:23:23;;;;;;;;;;;;;;;29.01;37.44;94753.16;4962058;28;6989;-59
2022/05/19 05:25:50;;;;;;;;;;;;;;;28.99;38.46;94752.22;4944532;28;7518;-60
2022/05/19 05:28:23;;;;;;;;;;;;;;;28.96;38.61;94762.31;4951728;28;7178;-59
2022/05/19 05:31:04;;;;;;;;;;;;;;;28.99;37.98;94769.56;4920844;28;7405;-59
2022/05/19 05:33:32;;;;;;;;;;;;;;;28.97;38.69;94769.34;4962946;28;9174;-59
2022/05/19 05:36:27;;;;;;;;;;;;;;;28.97;38.88;94776.94;4947689;28;8373;-60
2022/05/19 05:39:03;;;;;;;;;;;;;;;28.97;39.01;94772.13;4894580;29;7457;-59
2022/05/19 05:41:29;;;;;;;;;;;;;;;29.00;38.49;94779.38;4891568;29;8213;-60
2022/05/19 05:43:55;;;;;;;;;;;;;;;29.00;37.47;94773.84;4880033;29;9213;-60
2022/05/19 05:46:26;;;;;;;;;;;;;;;28.96;37.70;94781.72;4878795;29;8096;-60
2022/05/19 05:48:52;;;;;;;;;;;;;;;28.98;37.69;94776.41;4884354;29;7263;-59
2022/05/19 05:51:19;;;;;;;;;;;;;;;29.00;37.83;94784.16;4905695;29;9165;-60
2022/05/19 05:53:47;;;;;;;;;;;;;;;29.01;37.43;94782.91;4897431;29;7276;-60
2022/05/19 05:56:18;;;;;;;;;;;;;;;28.98;37.64;94790.25;4888801;29;9163;-60
2022/05/19 05:58:44;;;;;;;;;;;;;;;28.98;37.80;94786.72;4878231;29;8743;-60
2022/05/19 06:01:13;;;;;;;;;;;;;;;28.95;37.42;94794.03;4890344;29;9042;-59
2022/05/19 06:03:39;;;;;;;;;;;;;;;28.91;37.31;94790.84;4876333;29;7131;-59
2022/05/19 06:06:05;;;;;;;;;;;;;;;28.90;37.21;94794.88;4876734;29;7287;-59
2022/05/19 06:08:36;;;;;;;;;;;;;;;28.89;37.32;94796.16;4883851;29;7082;-59
2022/05/19 06:11:13;;;;;;;;;;;;;;;28.90;37.20;94802.44;4875793;29;8633;-59
2022/05/19 06:13:42;;;;;;;;;;;;;;;28.86;37.31;94796.47;4889640;29;7348;-59
2022/05/19 06:16:09;;;;;;;;;;;;;;;28.83;37.02;94798.25;4927455;28;8055;-59
2022/05/19 06:18:37;;;;;;;;;;;;;;;28.79;37.05;94800.56;4948252;28;9042;-59
2022/05/19 06:21:06;;;;;;;;;;;;;;;28.78;37.56;94804.59;4934706;28;7054;-59
2022/05/19 06:23:38;;;;;;;;;;;;;;;28.80;37.13;94801.28;4946060;28;7561;-58
2022/05/19 06:26:04;;;;;;;;;;;;;;;28.79;37.63;94803.34;4927387;28;7045;-59
2022/05/19 06:28:30;;;;;;;;;;;;;;;28.79;37.98;94814.41;4924329;28;7524;-60
2022/05/19 06:31:03;;;;;;;;;;;;;;;28.79;38.23;94814.41;4939880;28;9660;-60
2022/05/19 06:33:35;;;;;;;;;;;;;;;28.81;38.39;94811.88;4925843;28;7247;-60
2022/05/19 06:36:09;;;;;;;;;;;;;;;28.83;39.42;94820.41;4932301;28;7251;-59
2022/05/19 06:38:37;;;;;;;;;;;;;;;28.85;39.06;94817.09;4948687;28;7149;-59
2022/05/19 06:44:05;;;;;;;;;;;;;;;28.84;39.54;94816.34;4931449;28;7574;-60
2022/05/19 06:46:32;;;;;;;;;;;;;;;28.85;40.42;94820.63;4958842;28;8178;-59
2022/05/19 06:49:02;;;;;;;;;;;;;;;28.86;40.42;94824.88;4948702;28;8816;-59
2022/05/19 06:51:29;;;;;;;;;;;;;;;28.89;40.33;94829.38;4950571;28;6992;-57
2022/05/19 06:53:55;;;;;;;;;;;;;;;28.90;41.56;94835.66;4932588;28;7138;-58
2022/05/19 06:56:22;;;;;;;;;;;;;;;28.91;41.27;94826.84;4943589;28;9109;-58
2022/05/19 06:58:48;;;;;;;;;;;;;;;28.92;41.38;94828.34;4942147;28;6857;-58
2022/05/19 07:01:14;;;;;;;;;;;;;;;28.97;42.07;94827.50;4952680;28;8971;-60
2022/05/19 07:03:42;;;;;;;;;;;;;;;29.01;41.94;94830.00;4955976;28;9008;-59
2022/05/19 07:06:32;;;;;;;;;;;;;;;28.99;43.45;94827.72;4935018;28;9233;-59
2022/05/19 07:09:04;;;;;;;;;;;;;;;28.98;43.68;94831.78;4958463;28;7333;-59
2022/05/19 07:11:35;;;;;;;;;;;;;;;28.97;44.00;94835.81;4938845;28;7067;-59
2022/05/19 07:14:06;;;;;;;;;;;;;;;28.95;43.03;94824.50;4929780;28;6890;-60
2022/05/19 07:16:35;;;;;;;;;;;;;;;28.98;42.31;94831.78;4950234;28;9120;-60
2022/05/19 07:21:48;;;;;;;;;;;;;;;28.99;40.54;94836.03;4932032;28;7598;-59
2022/05/19 07:24:20;;;;;;;;;;;;;;;28.98;41.01;94831.03;4931246;28;7510;-59
2022/05/19 07:26:49;;;;;;;;;;;;;;;28.97;40.24;94835.81;4934460;29;9002;-59
2022/05/19 07:29:18;;;;;;;;;;;;;;;28.98;39.36;94842.84;4951646;28;9126;-59
2022/05/19 07:31:46;;;;;;;;;;;;;;;28.98;39.05;94839.34;4935214;29;9189;-58
2022/05/19 07:34:20;;;;;;;;;;;;;;;28.99;38.77;94843.63;4946892;28;7050;-59
2022/05/19 07:36:49;;;;;;;;;;;;;;;29.00;39.72;94843.09;4958917;28;7494;-59
2022/05/19 07:39:15;;;;;;;;;;;;;;;29.01;39.60;94841.78;4936166;29;9397;-59
2022/05/19 07:42:05;;;;;;;;;;;;;;;29.03;40.11;94850.34;4945886;28;7047;-59
2022/05/19 07:44:33;;;;;;;;;;;;;;;29.01;39.59;94844.56;4947496;28;7903;-61
2022/05/19 07:47:20;;;;;;;;;;;;;;;29.03;39.84;94838.53;4935120;29;6987;-60
2022/05/19 07:49:47;;;;;;;;;;;;;;;29.03;39.80;94833.75;4937293;29;9406;-60
2022/05/19 07:52:16;;;;;;;;;;;;;;;29.03;39.78;94841.28;4933485;29;8996;-60
2022/05/19 07:54:42;;;;;;;;;;;;;;;29.03;39.19;94844.81;4946511;28;6997;-60
2022/05/19 07:57:15;;;;;;;;;;;;;;;29.02;38.86;94848.09;4954095;28;7297;-60
2022/05/19 07:59:41;;;;;;;;;;;;;;;29.01;39.04;94843.84;4944296;28;7000;-60
2022/05/19 08:02:09;;;;;;;;;;;;;;;29.03;39.09;94838.53;4951096;28;7209;-60
2022/05/19 08:04:37;;;;;;;;;;;;;;;29.03;38.93;94841.28;4932203;28;7136;-60
2022/05/19 08:07:04;;;;;;;;;;;;;;;29.02;39.08;94843.31;4963475;28;6852;-60
2022/05/19 08:15:36;;;;;;;;;;;;;;;29.01;39.73;94841.78;4942868;28;7253;-60
2022/05/19 08:18:11;;;;;;;;;;;;;;;29.01;38.74;94841.78;4957007;28;7607;-60
2022/05/19 08:20:43;;;;;;;;;;;;;;;29.03;39.39;94844.81;4962773;28;7771;-60
2022/05/19 08:23:30;;;;;;;;;;;;;;;29.00;39.12;94840.31;4952449;28;8813;-60
2022/05/19 08:25:59;;;;;;;;;;;;;;;29.05;38.58;94841.53;4935507;28;7568;-60
2022/05/19 08:28:29;;;;;;;;;;;;;;;29.04;38.28;94840.75;4933478;28;9266;-60
2022/05/19 08:31:01;;;;;;;;;;;;;;;29.05;38.36;94847.06;4958000;28;7988;-60
2022/05/19 08:33:29;;;;;;;;;;;;;;;29.05;38.21;94841.53;4953216;28;6997;-60
2022/05/19 08:35:56;;;;;;;;;;;;;;;29.05;38.25;94842.28;4942294;28;9097;-60
2022/05/19 08:38:23;;;;;;;;;;;;;;;29.06;38.72;94843.75;4936200;28;9104;-60
2022/05/19 08:41:04;;;;;;;;;;;;;;;29.06;38.03;94843.00;4934137;29;6869;-60
2022/05/19 08:43:57;;;;;;;;;;;;;;;29.06;38.19;94837.47;4966384;28;6981;-60
2022/05/19 08:46:31;;;;;;;;;;;;;;;29.05;37.53;94842.28;4894422;29;9569;-59
2022/05/19 08:49:34;;;;;;;;;;;;;;;29.08;38.02;94834.91;4897005;29;9468;-60
2022/05/19 08:52:12;;;;;;;;;;;;;;;29.05;37.40;94839.50;4918434;29;9066;-60
2022/05/19 08:54:43;;;;;;;;;;;;;;;29.07;37.47;94841.75;4895322;29;7262;-60
2022/05/19 08:57:18;;;;;;;;;;;;;;;29.04;37.58;94828.94;4896894;29;7247;-60
2022/05/19 09:00:06;;;;;;;;;;;;;;;29.04;37.56;94840.75;4907476;29;7254;-60
2022/05/19 09:02:51;;;;;;;;;;;;;;;29.07;37.03;94834.19;4909091;29;7115;-60
2022/05/19 09:05:52;;;;;;;;;;;;;;;29.06;36.19;94832.69;4906420;29;9229;-60
2022/05/19 09:08:25;;;;;;;;;;;;;;;29.07;36.99;94831.41;4895364;29;7119;-60
2022/05/19 09:11:14;;;;;;;;;;;;;;;29.08;37.05;94832.16;4910146;29;7978;-60
2022/05/19 09:14:00;;;;;;;;;;;;;;;29.08;37.17;94835.66;4894586;29;6857;-60
2022/05/19 09:16:39;;;;;;;;;;;;;;;29.08;37.43;94829.38;4892892;29;7153;-59
2022/05/19 09:19:54;;;;;;;;;;;;;;;29.08;36.61;94827.34;4895521;29;7070;-59
2022/05/19 09:22:33;;;;;;;;;;;;;;;29.10;36.80;94832.41;4874014;29;7069;-60
2022/05/19 09:25:08;;;;;;;;;;;;;;;29.09;36.74;94831.63;4900900;29;7517;-60
2022/05/19 09:27:42;;;;;;;;;;;;;;;29.09;36.91;94839.19;4903008;29;7250;-60
2022/05/19 09:30:47;;;;;;;;;;;;;;;29.11;36.95;94825.56;4899397;29;7309;-60
2022/05/19 09:33:16;;;;;;;;;;;;;;;29.12;37.47;94832.63;4909338;29;9051;-60
2022/05/19 09:35:58;;;;;;;;;;;;;;;29.14;37.01;94832.09;4895185;29;7238;-60
2022/05/19 09:38:36;;;;;;;;;;;;;;;29.12;37.52;94829.09;4892040;29;7308;-60
2022/05/19 09:41:18;;;;;;;;;;;;;;;29.13;37.53;94827.81;4886018;29;8800;-60
2022/05/19 09:43:54;;;;;;;;;;;;;;;29.13;38.31;94822.25;4889689;29;9007;-60
2022/05/19 09:46:55;;;;;;;;;;;;;;;29.14;37.61;94821.75;4881828;29;7003;-60
2022/05/19 09:49:34;;;;;;;;;;;;;;;29.17;37.62;94825.53;4889835;29;6986;-60
2022/05/19 09:52:05;;;;;;;;;;;;;;;29.18;37.73;94822.22;4898810;29;9803;-60
2022/05/19 09:54:33;;;;;;;;;;;;;;;29.21;37.98;94812.13;4894390;29;9076;-59
2022/05/19 09:57:10;;;;;;;;;;;;;;;29.24;37.38;94816.59;4869798;29;9051;-60
2022/05/19 09:59:45;;;;;;;;;;;;;;;29.26;37.54;94817.59;4947177;28;7098;-59
2022/05/19 10:02:30;;;;;;;;;;;;;;;29.26;37.37;94816.81;4934165;28;9089;-59
2022/05/19 10:04:59;;;;;;;;;;;;;;;29.26;36.81;94816.81;4969266;28;7350;-59
2022/05/19 10:07:40;;;;;;;;;;;;;;;29.26;36.81;94816.81;4944179;28;6975;-59
2022/05/19 10:10:27;;;;;;;;;;;;;;;29.24;36.80;94820.13;4963950;28;7261;-59
2022/05/19 10:13:02;;;;;;;;;;;;;;;29.25;36.36;94824.41;4945022;28;9172;-59
2022/05/19 10:15:46;;;;;;;;;;;;;;;29.25;36.08;94815.34;4927235;28;9202;-59
2022/05/19 10:18:25;;;;;;;;;;;;;;;29.26;36.51;94816.81;4929938;28;7248;-58
2022/05/19 10:21:09;;;;;;;;;;;;;;;29.26;36.79;94816.81;4927206;28;9087;-59
2022/05/19 10:23:59;;;;;;;;;;;;;;;29.23;36.22;94806.81;4938394;28;9507;-60
2022/05/19 10:26:41;;;;;;;;;;;;;;;29.23;35.91;94817.91;4931072;28;8785;-60
2022/05/19 10:32:01;;;;;;;;;;;;;;;29.25;35.82;94810.56;4933080;28;8778;-60
2022/05/19 10:34:44;;;;;;;;;;;;;;;29.24;36.33;94805.53;4944559;28;7195;-60
2022/05/19 10:37:41;;;;;;;;;;;;;;;29.25;36.34;94799.47;4941715;28;9090;-59
2022/05/19 10:40:39;;;;;;;;;;;;;;;29.23;36.50;94795.72;4940720;28;9392;-59
2022/05/19 10:43:47;;;;;;;;;;;;;;;29.25;36.50;94793.94;4946619;28;7098;-60
2022/05/19 10:46:22;;;;;;;;;;;;;;;29.27;36.16;94796.16;4898463;29;6857;-59
2022/05/19 10:49:11;;;;;;;;;;;;;;;29.29;36.11;94790.84;4887683;29;8740;-60
2022/05/19 10:51:59;;;;;;;;;;;;;;;29.28;36.10;94792.88;4906880;29;9540;-59
2022/05/19 10:54:44;;;;;;;;;;;;;;;29.27;36.13;94796.16;4893023;29;7102;-59
2022/05/19 10:57:40;;;;;;;;;;;;;;;29.27;36.43;94791.38;4904847;29;8035;-59
2022/05/19 11:00:19;;;;;;;;;;;;;;;29.28;36.57;94786.56;4903136;29;7939;-59
2022/05/19 11:03:02;;;;;;;;;;;;;;;29.30;36.21;94781.25;4887037;29;9334;-60
2022/05/19 11:05:33;;;;;;;;;;;;;;;29.30;36.37;94778.47;4895899;29;9084;-60
2022/05/19 11:08:08;;;;;;;;;;;;;;;29.30;35.75;94775.72;4901108;29;6944;-60
2022/05/19 11:11:04;;;;;;;;;;;;;;;29.30;35.98;94767.41;4902813;29;7257;-59
2022/05/19 11:13:33;;;;;;;;;;;;;;;29.31;36.15;94768.91;4904219;29;7108;-60
2022/05/19 11:16:44;;;;;;;;;;;;;;;29.30;35.78;94770.91;4893535;29;8831;-60
2022/05/19 11:19:23;;;;;;;;;;;;;;;29.31;35.27;94757.81;4867382;29;7290;-60
2022/05/19 11:21:55;;;;;;;;;;;;;;;29.32;35.47;94757.28;4863023;29;9851;-60
2022/05/19 11:26:23;;;;;;;;;;;;;;;29.35;36.54;94749.94;4840993;29;9001;-59
2022/05/19 11:27:31;;;;;;;;;;;;;;;29.35;36.69;94759.00;4868948;29;7289;-59
2022/05/19 11:30:07;;;;;;;;;;;;;;;29.36;36.21;94757.00;4871522;29;9082;-59
2022/05/19 11:32:36;;;;;;;;;;;;;;;29.40;37.20;94765.75;4881033;29;8969;-59
2022/05/19 11:35:04;;;;;;;;;;;;;;;29.39;37.26;94762.22;4868645;29;9207;-60
2022/05/19 11:37:53;;;;;;;;;;;;;;;29.41;37.48;94765.22;4871730;29;6996;-60
2022/05/19 11:40:39;;;;;;;;;;;;;;;29.45;36.91;94767.69;4863346;29;6917;-60
2022/05/19 11:43:09;;;;;;;;;;;;;;;29.47;37.72;94765.13;4878302;29;8742;-60
2022/05/19 11:45:47;;;;;;;;;;;;;;;29.47;37.56;94759.59;4863334;29;7462;-59
2022/05/19 11:58:04;;;;;;;;;;;;;;;29.57;38.71;94766.22;4939864;29;7143;-60
2022/05/19 12:01:01;;;;;;;;;;;;;;;29.57;38.60;94764.22;4945006;28;9228;-60
2022/05/19 12:03:36;;;;;;;;;;;;;;;29.58;37.80;94759.44;4935626;29;7383;-59
2022/05/19 12:06:17;;;;;;;;;;;;;;;29.59;38.57;94769.97;4943473;28;8676;-59
2022/05/19 12:09:03;;;;;;;;;;;;;;;29.60;39.82;94765.91;4937239;29;9043;-60
2022/05/19 12:11:52;;;;;;;;;;;;;;;29.61;39.13;94764.66;4951962;28;7099;-60
2022/05/19 12:14:27;;;;;;;;;;;;;;;29.62;38.63;94766.13;4931398;29;9225;-60
2022/05/19 12:16:59;;;;;;;;;;;;;;;29.64;39.11;94765.63;4948889;28;7034;-59
2022/05/19 12:19:54;;;;;;;;;;;;;;;29.66;38.92;94765.84;4946794;28;7329;-59
2022/05/19 12:22:34;;;;;;;;;;;;;;;29.69;38.72;94771.06;4934951;28;6998;-59
2022/05/19 12:25:24;;;;;;;;;;;;;;;29.71;39.10;94782.38;4953898;28;9370;-59
2022/05/19 12:28:25;;;;;;;;;;;;;;;29.73;39.03;94790.19;4938931;29;7164;-60
2022/05/19 12:33:51;;;;;;;;;;;;;;;29.77;38.75;94788.63;4931817;29;7220;-60
2022/05/19 12:36:44;;;;;;;;;;;;;;;29.78;37.99;94792.13;4970017;28;7251;-60
2022/05/19 12:39:13;;;;;;;;;;;;;;;29.77;38.78;94776.78;4961108;28;8789;-61
2022/05/19 12:41:51;;;;;;;;;;;;;;;29.75;38.45;94768.25;4940140;28;9153;-60
2022/05/19 12:44:39;;;;;;;;;;;;;;;29.73;39.21;94756.91;4945305;28;6967;-61
2022/05/19 12:47:20;;;;;;;;;;;;;;;29.75;39.00;94751.59;4965961;28;7658;-60
2022/05/19 12:50:01;;;;;;;;;;;;;;;29.76;39.07;94751.06;4938349;28;6861;-61
2022/05/19 12:52:57;;;;;;;;;;;;;;;29.78;39.34;94761.63;4938013;28;9289;-61
2022/05/19 12:55:26;;;;;;;;;;;;;;;29.77;40.06;94762.91;4947912;28;7091;-61
2022/05/19 12:57:55;;;;;;;;;;;;;;;29.78;40.08;94761.63;4947545;28;7981;-60
2022/05/19 13:00:24;;;;;;;;;;;;;;;29.76;40.15;94764.94;4956320;28;7133;-60
2022/05/19 13:02:50;;;;;;;;;;;;;;;29.76;39.40;94764.94;4950327;28;7069;-59
2022/05/19 13:05:30;;;;;;;;;;;;;;;29.76;39.23;94769.72;4959941;28;9041;-60
2022/05/19 13:08:10;;;;;;;;;;;;;;;29.77;39.67;94765.69;4950916;28;7243;-59
2022/05/19 13:10:50;;;;;;;;;;;;;;;29.78;40.12;94769.94;4930994;28;7737;-60
2022/05/19 13:13:30;;;;;;;;;;;;;;;29.77;40.17;94777.53;4934242;28;7231;-60
2022/05/19 13:16:04;;;;;;;;;;;;;;;29.77;39.57;94782.31;4951454;28;7066;-60
2022/05/19 13:18:52;;;;;;;;;;;;;;;29.79;39.59;94796.41;4942437;28;7150;-59
2022/05/19 13:21:37;;;;;;;;;;;;;;;29.80;39.04;94803.44;4947089;28;7259;-59
2022/05/19 13:24:15;;;;;;;;;;;;;;;29.88;39.30;94800.78;4960620;28;9085;-59
2022/05/19 13:26:45;;;;;;;;;;;;;;;29.94;38.67;94799.41;4944890;28;7191;-60
2022/05/19 13:32:14;;;;;;;;;;;;;;;30.13;38.65;94813.97;4936201;28;9041;-60
2022/05/19 13:34:45;;;;;;;;;;;;;;;30.11;37.76;94810.97;4932755;28;7535;-61
2022/05/19 13:37:13;;;;;;;;;;;;;;;30.02;36.49;94808.59;4948904;28;7298;-60
2022/05/19 13:39:43;;;;;;;;;;;;;;;29.99;36.11;94804.13;4951359;28;8961;-60
2022/05/19 13:42:18;;;;;;;;;;;;;;;29.97;35.85;94801.13;4956953;28;7269;-60
2022/05/19 13:44:52;;;;;;;;;;;;;;;29.95;35.90;94794.63;4964687;28;9142;-60
2022/05/19 13:47:25;;;;;;;;;;;;;;;29.95;35.96;94792.59;4938302;28;9088;-60
2022/05/19 13:49:59;;;;;;;;;;;;;;;29.86;33.93;94789.47;4937983;28;9388;-59
2022/05/19 13:52:30;;;;;;;;;;;;;;;29.86;34.89;94784.69;4951740;28;7286;-59
2022/05/19 13:54:56;;;;;;;;;;;;;;;29.90;34.69;94789.91;4922177;28;6860;-60
2022/05/19 13:57:29;;;;;;;;;;;;;;;29.91;34.80;94797.69;4962689;28;7198;-59
2022/05/19 13:59:59;;;;;;;;;;;;;;;29.90;34.78;94796.22;4949637;28;7189;-59
2022/05/19 14:02:38;;;;;;;;;;;;;;;29.93;34.88;94799.97;4961874;28;9079;-59
2022/05/19 14:05:22;;;;;;;;;;;;;;;29.93;34.63;94803.47;4931802;28;7512;-60
2022/05/19 14:07:59;;;;;;;;;;;;;;;29.94;36.01;94807.75;4950673;28;8840;-60
2022/05/19 14:10:28;;;;;;;;;;;;;;;29.93;37.25;94806.22;4966182;28;9079;-60
2022/05/19 14:13:00;;;;;;;;;;;;;;;29.94;36.94;94806.97;4941484;28;7636;-58